Kawadi — CFG7257 — position and weather

sailwx.info

Track history (hours):
 
Tides and Currents Weather Stations Pressure Air Temp Water Temp Dewpoint Dewpoint Depression Visibility Wind Speed Wind Dir Waves Ship Positions

Kawadi

Last reported at 2017-Dec-07 21:58 UTC. Time now 2017-Dec-17 19:54 UTC.
Position N 54°17' W 130°21'.
Warning: this ship's position is 9 days out of date.

Length 23 m; draft 3 m.

Type: Fishing. MMSI: 316005846.

Date/timePositionNaut miles runAvg speedWind from/ knotsBaromVisibWave heightAir tempDewpointWater temp
2017-Dec-07 21:58N 54°17' W 130°21'0 0.0
2017-Dec-07 21:30N 54°17' W 130°21'0 0.0
2017-Dec-07 21:00N 54°17' W 130°21'0 0.0
2017-Dec-07 20:30N 54°17' W 130°21'0 0.0
2017-Dec-07 20:00N 54°17' W 130°21'0 0.0
2017-Dec-07 19:30N 54°17' W 130°21'0 0.0
2017-Dec-07 19:00N 54°17' W 130°21'0 0.0
2017-Dec-07 18:30N 54°17' W 130°21'0 0.0
2017-Dec-07 18:00N 54°17' W 130°21'0 0.0
2017-Dec-07 17:30N 54°17' W 130°21'0 0.0
2017-Dec-07 16:59N 54°17' W 130°21'0 0.0
2017-Dec-07 16:30N 54°17' W 130°21'0 0.0
2017-Dec-07 16:00N 54°17' W 130°21'0 0.0
2017-Dec-07 15:30N 54°17' W 130°21'0 0.0
2017-Dec-07 15:00N 54°17' W 130°21'0 0.0
2017-Dec-07 14:30N 54°17' W 130°21'0 0.0
2017-Dec-07 14:00N 54°17' W 130°21'0 0.0
2017-Dec-07 13:30N 54°17' W 130°21'0 0.0
2017-Dec-07 13:00N 54°17' W 130°21'0 0.0
2017-Dec-07 12:29N 54°17' W 130°21'0 0.0
2017-Dec-07 11:59N 54°17' W 130°21'0 0.0
2017-Dec-07 11:30N 54°17' W 130°21'0 0.0
2017-Dec-07 11:00N 54°17' W 130°21'0 0.0
2017-Dec-07 10:30N 54°17' W 130°21'0 0.0
2017-Dec-07 10:00N 54°17' W 130°21'0 0.0
2017-Dec-07 09:29N 54°17' W 130°21'0 0.0
2017-Dec-07 09:00N 54°17' W 130°21'0 0.0
2017-Dec-07 08:30N 54°17' W 130°21'0 0.0
2017-Dec-07 08:00N 54°17' W 130°21'0 0.0
2017-Dec-07 07:30N 54°17' W 130°21'0 0.0
2017-Dec-07 07:00N 54°17' W 130°21'0 0.0
2017-Dec-07 06:30N 54°17' W 130°21'0 0.0
2017-Dec-07 05:39N 54°17' W 130°21'0 0.0
2017-Dec-07 05:22N 54°17' W 130°21'0 0.0
2017-Dec-07 05:00N 54°17' W 130°21'0 0.0
2017-Dec-07 04:20N 54°17' W 130°21'0 0.0
2017-Dec-07 04:00N 54°17' W 130°21'0 0.0
2017-Dec-07 03:25N 54°17' W 130°21'0 0.0
2017-Dec-07 02:31N 54°17' W 130°21'0 0.0
2017-Dec-07 02:28N 54°17' W 130°21'0 0.0
2017-Dec-07 02:00N 54°17' W 130°21'0 0.0
2017-Dec-07 01:30N 54°17' W 130°21'0 0.0
2017-Dec-07 00:58N 54°17' W 130°21'0 0.0
2017-Dec-07 00:29N 54°17' W 130°21'0 0.0
2017-Dec-06 23:49N 54°17' W 130°21'0 0.0
2017-Dec-06 23:30N 54°17' W 130°21'0 0.0
2017-Dec-06 22:46N 54°17' W 130°21'0 0.0
2017-Dec-06 22:28N 54°17' W 130°21'0 0.0
2017-Dec-06 21:00N 54°17' W 130°21'  
2017-Dec-04 07:31N 54°31' W 130°50'2 7.7
2017-Dec-04 07:12N 54°29' W 130°53'20 0.6
2017-Dec-02 21:17N 54°18' W 131°21'1 2.5
2017-Dec-02 20:55N 54°18' W 131°22'5 0.3
2017-Dec-02 01:10N 54°21' W 131°15'1 3.0
2017-Dec-02 00:51N 54°20' W 131°15'1 3.0
2017-Dec-02 00:30N 54°19' W 131°15'1 2.9
2017-Dec-02 00:00N 54°18' W 131°18'2 3.0
2017-Dec-01 23:24N 54°18' W 131°21'2 2.9
2017-Dec-01 22:51N 54°18' W 131°23'1 1.7
2017-Dec-01 22:25N 54°19' W 131°25'5 2.6
2017-Dec-01 20:39N 54°19' W 131°17'1 2.6
2017-Dec-01 20:25N 54°20' W 131°17'0 0.2
2017-Dec-01 17:41N 54°20' W 131°16'2 2.7
2017-Dec-01 17:04N 54°19' W 131°18'0 3.3
2017-Dec-01 17:00N 54°19' W 131°18'2 3.4
2017-Dec-01 16:26N 54°18' W 131°22'14 2.6
2017-Dec-01 11:09N 54°20' W 130°58'1 7.9
2017-Dec-01 10:59N 54°19' W 130°56'4 7.9
2017-Dec-01 10:30N 54°18' W 130°50'4 8.1
2017-Dec-01 10:00N 54°17' W 130°43'4 8.0
2017-Dec-01 09:30N 54°16' W 130°36'4 8.2
2017-Dec-01 09:00N 54°15' W 130°30'4 8.4
2017-Dec-01 08:30N 54°14' W 130°23'3 7.0
2017-Dec-01 08:00N 54°17' W 130°22'0 0.9
2017-Dec-01 07:30N 54°17' W 130°21'0 0.0
2017-Dec-01 07:00N 54°17' W 130°21'0 0.0
2017-Dec-01 06:30N 54°17' W 130°21'0 0.0
2017-Dec-01 06:00N 54°17' W 130°21'0 0.0
2017-Dec-01 05:31N 54°17' W 130°21'0 0.0
2017-Dec-01 05:00N 54°17' W 130°21'0 0.0
2017-Dec-01 04:30N 54°17' W 130°21'0 0.0
2017-Dec-01 04:01N 54°17' W 130°21'0 0.0
2017-Dec-01 03:31N 54°17' W 130°21'0 0.0
2017-Dec-01 03:01N 54°17' W 130°21'0 0.0
2017-Dec-01 02:30N 54°17' W 130°21'0 0.0
2017-Dec-01 02:00N 54°17' W 130°21'0 0.0
2017-Dec-01 01:30N 54°17' W 130°21'0 0.0
2017-Dec-01 01:00N 54°17' W 130°21'0 0.0
2017-Dec-01 00:31N 54°17' W 130°21'0 0.0
2017-Dec-01 00:00N 54°17' W 130°21'0 0.0
2017-Nov-30 23:31N 54°17' W 130°21'0 0.0
2017-Nov-30 23:00N 54°18' W 130°21'0 0.0
2017-Nov-30 22:30N 54°17' W 130°21'0 0.0
2017-Nov-30 22:01N 54°17' W 130°21'0 0.0
2017-Nov-30 21:31N 54°17' W 130°21'0 0.0
2017-Nov-30 21:01N 54°17' W 130°21'0 0.0
2017-Nov-30 20:31N 54°18' W 130°21'0 0.0
2017-Nov-30 20:00N 54°17' W 130°21'0 0.0
2017-Nov-30 19:30N 54°17' W 130°21'0 0.0
2017-Nov-30 19:00N 54°17' W 130°21'0 0.0
2017-Nov-30 18:31N 54°17' W 130°21'0 0.0
2017-Nov-30 18:00N 54°17' W 130°21'0 0.0
2017-Nov-30 17:30N 54°18' W 130°21'0 0.0
2017-Nov-30 17:01N 54°18' W 130°21'0 0.0
2017-Nov-30 16:31N 54°17' W 130°21'0 0.0
2017-Nov-30 16:00N 54°17' W 130°21'0 0.0
2017-Nov-30 15:30N 54°17' W 130°21'0 0.0
2017-Nov-30 15:00N 54°17' W 130°21'0 0.0
2017-Nov-30 14:30N 54°18' W 130°21'0 0.0
2017-Nov-30 14:00N 54°17' W 130°21'0 0.0
2017-Nov-30 13:30N 54°17' W 130°21'0 0.0
2017-Nov-30 13:00N 54°17' W 130°21'0 0.0
2017-Nov-30 12:31N 54°17' W 130°21'0 0.0
2017-Nov-30 12:00N 54°17' W 130°21'0 0.0
2017-Nov-30 11:30N 54°17' W 130°21'0 0.0
2017-Nov-30 11:00N 54°17' W 130°21'0 0.0
2017-Nov-30 10:30N 54°17' W 130°21'0 0.0
2017-Nov-30 10:00N 54°17' W 130°21'0 0.0
2017-Nov-30 09:30N 54°17' W 130°21'0 0.0
2017-Nov-30 09:00N 54°17' W 130°21'0 0.0
2017-Nov-30 08:30N 54°17' W 130°21'0 0.0
2017-Nov-30 08:01N 54°17' W 130°21'0 0.0
2017-Nov-30 07:31N 54°17' W 130°21'0 0.0
2017-Nov-30 07:00N 54°17' W 130°21'0 0.0
2017-Nov-30 06:30N 54°17' W 130°21'0 0.0
2017-Nov-30 06:00N 54°17' W 130°21'0 0.0
2017-Nov-30 05:30N 54°17' W 130°21'0 0.0
2017-Nov-30 05:00N 54°17' W 130°21'0 0.0
2017-Nov-30 04:30N 54°17' W 130°21'0 0.0
2017-Nov-30 04:00N 54°17' W 130°21'0 0.0
2017-Nov-30 03:30N 54°18' W 130°21'0 0.0
2017-Nov-30 03:00N 54°18' W 130°21'0 0.0
2017-Nov-30 02:30N 54°17' W 130°21'0 0.0
2017-Nov-30 02:00N 54°17' W 130°21'0 0.0
2017-Nov-30 01:30N 54°17' W 130°21'0 0.0
2017-Nov-30 01:01N 54°17' W 130°21'0 0.0
2017-Nov-30 00:30N 54°17' W 130°21'0 0.0
2017-Nov-30 00:00N 54°17' W 130°21'0 0.0
2017-Nov-29 23:31N 54°17' W 130°21'0 0.0
2017-Nov-29 23:00N 54°17' W 130°21'0 0.0
2017-Nov-29 22:30N 54°17' W 130°21'0 0.0
2017-Nov-29 22:01N 54°17' W 130°21'0 0.0
2017-Nov-29 21:31N 54°17' W 130°21'0 0.0
2017-Nov-29 21:00N 54°17' W 130°21'2 4.4
2017-Nov-29 20:30N 54°19' W 130°19'0 0.0
2017-Nov-29 20:00N 54°19' W 130°19'1 2.1
2017-Nov-29 19:30N 54°20' W 130°18'1 2.0
2017-Nov-29 19:01N 54°20' W 130°19'1 2.4
2017-Nov-29 18:30N 54°19' W 130°21'1 2.2
2017-Nov-29 18:00N 54°18' W 130°21'0 0.5
2017-Nov-29 17:30N 54°17' W 130°21'0 0.0
2017-Nov-29 17:00N 54°17' W 130°21'0 0.0
2017-Nov-29 16:30N 54°17' W 130°21'0 0.0
2017-Nov-29 16:00N 54°17' W 130°21'0 0.0
2017-Nov-29 15:31N 54°17' W 130°21'0 0.0
2017-Nov-29 15:00N 54°17' W 130°21'0 0.0
2017-Nov-29 14:30N 54°17' W 130°21'0 0.0
2017-Nov-29 14:00N 54°17' W 130°21'0 0.0
2017-Nov-29 13:30N 54°17' W 130°21'0 0.0
2017-Nov-29 13:00N 54°17' W 130°21'0 0.0
2017-Nov-29 12:30N 54°17' W 130°21'0 0.0
2017-Nov-29 12:01N 54°17' W 130°21'0 0.0
2017-Nov-29 11:31N 54°17' W 130°21'0 0.0
2017-Nov-29 11:00N 54°17' W 130°21'0 0.0
2017-Nov-29 10:30N 54°17' W 130°21'0 0.0
2017-Nov-29 10:01N 54°17' W 130°21'0 0.0
2017-Nov-29 09:31N 54°17' W 130°21'0 0.0
2017-Nov-29 09:00N 54°17' W 130°21'0 0.0
2017-Nov-29 08:30N 54°17' W 130°21'0 0.0
2017-Nov-29 08:00N 54°17' W 130°21'0 0.0
2017-Nov-29 07:30N 54°17' W 130°21'0 0.0
2017-Nov-29 07:00N 54°17' W 130°21'0 0.0
2017-Nov-29 06:31N 54°17' W 130°21'0 0.0
2017-Nov-29 06:00N 54°17' W 130°21'2 3.3
2017-Nov-29 05:30N 54°16' W 130°21'3 5.2
2017-Nov-29 05:00N 54°14' W 130°25'4 7.6
2017-Nov-29 04:30N 54°17' W 130°30'3 7.0
2017-Nov-29 04:00N 54°20' W 130°33'4 7.5
2017-Nov-29 03:30N 54°24' W 130°33'4 7.6
2017-Nov-29 02:58N 54°28' W 130°30'7 0.4
2017-Nov-28 11:29N 54°34' W 130°36'3 6.3
2017-Nov-28 10:56N 54°33' W 130°41'3 6.0
2017-Nov-28 10:24N 54°32' W 130°47'3 6.7
2017-Nov-28 10:00N 54°31' W 130°51'4 7.1
2017-Nov-28 09:22N 54°27' W 130°56'3 6.1
2017-Nov-28 08:51N 54°25' W 130°60'1 4.1
2017-Nov-28 08:30N 54°25' W 131°02'3 4.4
2017-Nov-28 07:52N 54°24' W 131°06'4 4.2
2017-Nov-28 06:57N 54°22' W 131°13'  
Track history (hours):
 
Tides and Currents Weather Stations Pressure Air Temp Water Temp Dewpoint Dewpoint Depression Visibility Wind Speed Wind Dir Waves Ship Positions

Kawadi

Last reported at 2017-Dec-07 21:58 UTC. Time now 2017-Dec-17 19:54 UTC.
Position N 54°17' W 130°21'.
Warning: this ship's position is 9 days out of date.

Length 23 m; draft 3 m.

Type: Fishing. MMSI: 316005846.

Date/timePositionNaut miles runAvg speedWind from/ knotsBaromVisibWave heightAir tempDewpointWater temp
2017-Dec-07 21:58N 54°17' W 130°21'0 0.0
2017-Dec-07 21:30N 54°17' W 130°21'0 0.0
2017-Dec-07 21:00N 54°17' W 130°21'0 0.0
2017-Dec-07 20:30N 54°17' W 130°21'0 0.0
2017-Dec-07 20:00N 54°17' W 130°21'0 0.0
2017-Dec-07 19:30N 54°17' W 130°21'0 0.0
2017-Dec-07 19:00N 54°17' W 130°21'0 0.0
2017-Dec-07 18:30N 54°17' W 130°21'0 0.0
2017-Dec-07 18:00N 54°17' W 130°21'0 0.0
2017-Dec-07 17:30N 54°17' W 130°21'0 0.0
2017-Dec-07 16:59N 54°17' W 130°21'0 0.0
2017-Dec-07 16:30N 54°17' W 130°21'0 0.0
2017-Dec-07 16:00N 54°17' W 130°21'0 0.0
2017-Dec-07 15:30N 54°17' W 130°21'0 0.0
2017-Dec-07 15:00N 54°17' W 130°21'0 0.0
2017-Dec-07 14:30N 54°17' W 130°21'0 0.0
2017-Dec-07 14:00N 54°17' W 130°21'0 0.0
2017-Dec-07 13:30N 54°17' W 130°21'0 0.0
2017-Dec-07 13:00N 54°17' W 130°21'0 0.0
2017-Dec-07 12:29N 54°17' W 130°21'0 0.0
2017-Dec-07 11:59N 54°17' W 130°21'0 0.0
2017-Dec-07 11:30N 54°17' W 130°21'0 0.0
2017-Dec-07 11:00N 54°17' W 130°21'0 0.0
2017-Dec-07 10:30N 54°17' W 130°21'0 0.0
2017-Dec-07 10:00N 54°17' W 130°21'0 0.0
2017-Dec-07 09:29N 54°17' W 130°21'0 0.0
2017-Dec-07 09:00N 54°17' W 130°21'0 0.0
2017-Dec-07 08:30N 54°17' W 130°21'0 0.0
2017-Dec-07 08:00N 54°17' W 130°21'0 0.0
2017-Dec-07 07:30N 54°17' W 130°21'0 0.0
2017-Dec-07 07:00N 54°17' W 130°21'0 0.0
2017-Dec-07 06:30N 54°17' W 130°21'0 0.0
2017-Dec-07 05:39N 54°17' W 130°21'0 0.0
2017-Dec-07 05:22N 54°17' W 130°21'0 0.0
2017-Dec-07 05:00N 54°17' W 130°21'0 0.0
2017-Dec-07 04:20N 54°17' W 130°21'0 0.0
2017-Dec-07 04:00N 54°17' W 130°21'0 0.0
2017-Dec-07 03:25N 54°17' W 130°21'0 0.0
2017-Dec-07 02:31N 54°17' W 130°21'0 0.0
2017-Dec-07 02:28N 54°17' W 130°21'0 0.0
2017-Dec-07 02:00N 54°17' W 130°21'0 0.0
2017-Dec-07 01:30N 54°17' W 130°21'0 0.0
2017-Dec-07 00:58N 54°17' W 130°21'0 0.0
2017-Dec-07 00:29N 54°17' W 130°21'0 0.0
2017-Dec-06 23:49N 54°17' W 130°21'0 0.0
2017-Dec-06 23:30N 54°17' W 130°21'0 0.0
2017-Dec-06 22:46N 54°17' W 130°21'0 0.0
2017-Dec-06 22:28N 54°17' W 130°21'0 0.0
2017-Dec-06 21:00N 54°17' W 130°21'  
2017-Dec-04 07:31N 54°31' W 130°50'2 7.7
2017-Dec-04 07:12N 54°29' W 130°53'20 0.6
2017-Dec-02 21:17N 54°18' W 131°21'1 2.5
2017-Dec-02 20:55N 54°18' W 131°22'5 0.3
2017-Dec-02 01:10N 54°21' W 131°15'1 3.0
2017-Dec-02 00:51N 54°20' W 131°15'1 3.0
2017-Dec-02 00:30N 54°19' W 131°15'1 2.9
2017-Dec-02 00:00N 54°18' W 131°18'2 3.0
2017-Dec-01 23:24N 54°18' W 131°21'2 2.9
2017-Dec-01 22:51N 54°18' W 131°23'1 1.7
2017-Dec-01 22:25N 54°19' W 131°25'5 2.6
2017-Dec-01 20:39N 54°19' W 131°17'1 2.6
2017-Dec-01 20:25N 54°20' W 131°17'0 0.2
2017-Dec-01 17:41N 54°20' W 131°16'2 2.7
2017-Dec-01 17:04N 54°19' W 131°18'0 3.3
2017-Dec-01 17:00N 54°19' W 131°18'2 3.4
2017-Dec-01 16:26N 54°18' W 131°22'14 2.6
2017-Dec-01 11:09N 54°20' W 130°58'1 7.9
2017-Dec-01 10:59N 54°19' W 130°56'4 7.9
2017-Dec-01 10:30N 54°18' W 130°50'4 8.1
2017-Dec-01 10:00N 54°17' W 130°43'4 8.0
2017-Dec-01 09:30N 54°16' W 130°36'4 8.2
2017-Dec-01 09:00N 54°15' W 130°30'4 8.4
2017-Dec-01 08:30N 54°14' W 130°23'3 7.0
2017-Dec-01 08:00N 54°17' W 130°22'0 0.9
2017-Dec-01 07:30N 54°17' W 130°21'0 0.0
2017-Dec-01 07:00N 54°17' W 130°21'0 0.0
2017-Dec-01 06:30N 54°17' W 130°21'0 0.0
2017-Dec-01 06:00N 54°17' W 130°21'0 0.0
2017-Dec-01 05:31N 54°17' W 130°21'0 0.0
2017-Dec-01 05:00N 54°17' W 130°21'0 0.0
2017-Dec-01 04:30N 54°17' W 130°21'0 0.0
2017-Dec-01 04:01N 54°17' W 130°21'0 0.0
2017-Dec-01 03:31N 54°17' W 130°21'0 0.0
2017-Dec-01 03:01N 54°17' W 130°21'0 0.0
2017-Dec-01 02:30N 54°17' W 130°21'0 0.0
2017-Dec-01 02:00N 54°17' W 130°21'0 0.0
2017-Dec-01 01:30N 54°17' W 130°21'0 0.0
2017-Dec-01 01:00N 54°17' W 130°21'0 0.0
2017-Dec-01 00:31N 54°17' W 130°21'0 0.0
2017-Dec-01 00:00N 54°17' W 130°21'0 0.0
2017-Nov-30 23:31N 54°17' W 130°21'0 0.0
2017-Nov-30 23:00N 54°18' W 130°21'0 0.0
2017-Nov-30 22:30N 54°17' W 130°21'0 0.0
2017-Nov-30 22:01N 54°17' W 130°21'0 0.0
2017-Nov-30 21:31N 54°17' W 130°21'0 0.0
2017-Nov-30 21:01N 54°17' W 130°21'0 0.0
2017-Nov-30 20:31N 54°18' W 130°21'0 0.0
2017-Nov-30 20:00N 54°17' W 130°21'0 0.0
2017-Nov-30 19:30N 54°17' W 130°21'0 0.0
2017-Nov-30 19:00N 54°17' W 130°21'0 0.0
2017-Nov-30 18:31N 54°17' W 130°21'0 0.0
2017-Nov-30 18:00N 54°17' W 130°21'0 0.0
2017-Nov-30 17:30N 54°18' W 130°21'0 0.0
2017-Nov-30 17:01N 54°18' W 130°21'0 0.0
2017-Nov-30 16:31N 54°17' W 130°21'0 0.0
2017-Nov-30 16:00N 54°17' W 130°21'0 0.0
2017-Nov-30 15:30N 54°17' W 130°21'0 0.0
2017-Nov-30 15:00N 54°17' W 130°21'0 0.0
2017-Nov-30 14:30N 54°18' W 130°21'0 0.0
2017-Nov-30 14:00N 54°17' W 130°21'0 0.0
2017-Nov-30 13:30N 54°17' W 130°21'0 0.0
2017-Nov-30 13:00N 54°17' W 130°21'0 0.0
2017-Nov-30 12:31N 54°17' W 130°21'0 0.0
2017-Nov-30 12:00N 54°17' W 130°21'0 0.0
2017-Nov-30 11:30N 54°17' W 130°21'0 0.0
2017-Nov-30 11:00N 54°17' W 130°21'0 0.0
2017-Nov-30 10:30N 54°17' W 130°21'0 0.0
2017-Nov-30 10:00N 54°17' W 130°21'0 0.0
2017-Nov-30 09:30N 54°17' W 130°21'0 0.0
2017-Nov-30 09:00N 54°17' W 130°21'0 0.0
2017-Nov-30 08:30N 54°17' W 130°21'0 0.0
2017-Nov-30 08:01N 54°17' W 130°21'0 0.0
2017-Nov-30 07:31N 54°17' W 130°21'0 0.0
2017-Nov-30 07:00N 54°17' W 130°21'0 0.0
2017-Nov-30 06:30N 54°17' W 130°21'0 0.0
2017-Nov-30 06:00N 54°17' W 130°21'0 0.0
2017-Nov-30 05:30N 54°17' W 130°21'0 0.0
2017-Nov-30 05:00N 54°17' W 130°21'0 0.0
2017-Nov-30 04:30N 54°17' W 130°21'0 0.0
2017-Nov-30 04:00N 54°17' W 130°21'0 0.0
2017-Nov-30 03:30N 54°18' W 130°21'0 0.0
2017-Nov-30 03:00N 54°18' W 130°21'0 0.0
2017-Nov-30 02:30N 54°17' W 130°21'0 0.0
2017-Nov-30 02:00N 54°17' W 130°21'0 0.0
2017-Nov-30 01:30N 54°17' W 130°21'0 0.0
2017-Nov-30 01:01N 54°17' W 130°21'0 0.0
2017-Nov-30 00:30N 54°17' W 130°21'0 0.0
2017-Nov-30 00:00N 54°17' W 130°21'0 0.0
2017-Nov-29 23:31N 54°17' W 130°21'0 0.0
2017-Nov-29 23:00N 54°17' W 130°21'0 0.0
2017-Nov-29 22:30N 54°17' W 130°21'0 0.0
2017-Nov-29 22:01N 54°17' W 130°21'0 0.0
2017-Nov-29 21:31N 54°17' W 130°21'0 0.0
2017-Nov-29 21:00N 54°17' W 130°21'2 4.4
2017-Nov-29 20:30N 54°19' W 130°19'0 0.0
2017-Nov-29 20:00N 54°19' W 130°19'1 2.1
2017-Nov-29 19:30N 54°20' W 130°18'1 2.0
2017-Nov-29 19:01N 54°20' W 130°19'1 2.4
2017-Nov-29 18:30N 54°19' W 130°21'1 2.2
2017-Nov-29 18:00N 54°18' W 130°21'0 0.5
2017-Nov-29 17:30N 54°17' W 130°21'0 0.0
2017-Nov-29 17:00N 54°17' W 130°21'0 0.0
2017-Nov-29 16:30N 54°17' W 130°21'0 0.0
2017-Nov-29 16:00N 54°17' W 130°21'0 0.0
2017-Nov-29 15:31N 54°17' W 130°21'0 0.0
2017-Nov-29 15:00N 54°17' W 130°21'0 0.0
2017-Nov-29 14:30N 54°17' W 130°21'0 0.0
2017-Nov-29 14:00N 54°17' W 130°21'0 0.0
2017-Nov-29 13:30N 54°17' W 130°21'0 0.0
2017-Nov-29 13:00N 54°17' W 130°21'0 0.0
2017-Nov-29 12:30N 54°17' W 130°21'0 0.0
2017-Nov-29 12:01N 54°17' W 130°21'0 0.0
2017-Nov-29 11:31N 54°17' W 130°21'0 0.0
2017-Nov-29 11:00N 54°17' W 130°21'0 0.0
2017-Nov-29 10:30N 54°17' W 130°21'0 0.0
2017-Nov-29 10:01N 54°17' W 130°21'0 0.0
2017-Nov-29 09:31N 54°17' W 130°21'0 0.0
2017-Nov-29 09:00N 54°17' W 130°21'0 0.0
2017-Nov-29 08:30N 54°17' W 130°21'0 0.0
2017-Nov-29 08:00N 54°17' W 130°21'0 0.0
2017-Nov-29 07:30N 54°17' W 130°21'0 0.0
2017-Nov-29 07:00N 54°17' W 130°21'0 0.0
2017-Nov-29 06:31N 54°17' W 130°21'0 0.0
2017-Nov-29 06:00N 54°17' W 130°21'2 3.3
2017-Nov-29 05:30N 54°16' W 130°21'3 5.2
2017-Nov-29 05:00N 54°14' W 130°25'4 7.6
2017-Nov-29 04:30N 54°17' W 130°30'3 7.0
2017-Nov-29 04:00N 54°20' W 130°33'4 7.5
2017-Nov-29 03:30N 54°24' W 130°33'4 7.6
2017-Nov-29 02:58N 54°28' W 130°30'7 0.4
2017-Nov-28 11:29N 54°34' W 130°36'3 6.3
2017-Nov-28 10:56N 54°33' W 130°41'3 6.0
2017-Nov-28 10:24N 54°32' W 130°47'3 6.7
2017-Nov-28 10:00N 54°31' W 130°51'4 7.1
2017-Nov-28 09:22N 54°27' W 130°56'3 6.1
2017-Nov-28 08:51N 54°25' W 130°60'1 4.1
2017-Nov-28 08:30N 54°25' W 131°02'3 4.4
2017-Nov-28 07:52N 54°24' W 131°06'4 4.2
2017-Nov-28 06:57N 54°22' W 131°13'  

Dump ship's entire track history